Attawapiskat Airport
CYAT : now visible

Airfield :











YOU CAN JOIN US ON...

 
LOGIN :

Register | Disclaimer

   EN    FR    IT 

 









Legend :    VFR   Marginal VFR   IFR   Intensive IFR   Very Intensive IFR
Visi :
Ceiling :
>= 8 km
>= 3000ft
5 to 8 km
1000 to 3000 ft
1500m to 5 km
500 to 1000 ft
800 to 1500m
200 to 500 ft
< 800m
< 200 ft
Symbols :   Thunderstorms  Fog  Heavy snow  Heavy precipitations  Wind > 20 kt






- Airport Elevation : 31 ft
- IATA code : YAT


CYAT - Attawapiskat

CURRENT METAR :
  • 221230Z AUTO VRB02KT 5SM -SN FEW022 OVC048 M03/M03 A3019 RMK SLP225

EXPIRED METARs :
  • 221219Z AUTO 00000KT 9SM -SN SCT022 OVC050 M03/M03 A3019 RMK SLP225
  • 221200Z AUTO 20002KT 9SM -SN OVC022 M03/M03 A3019 RMK SLP224
  • 221148Z AUTO 21003KT 9SM -SN OVC022 M03/M03 A3019 RMK SLP224
  • 221120Z AUTO 20004KT 9SM BKN018 BKN100 OVC120 M04/M04 A3018 RMK SLP222
  • 221100Z AUTO 19003KT 090V190 9SM FEW018 BKN100 OVC120 M04/M04 A3017 RMK SLP219
  • 221050Z AUTO 00000KT 9SM SCT020 OVC100 M04/M05 A3017 RMK SLP217
  • 221011Z AUTO 25003KT 9SM BKN020 OVC180 M05/M05 A3017 RMK SLP220

TAF TAF CYAT
Valid from the 22 at 09:00 until the 22 at 19:00 UTC


220838Z 2209/2219 VRB03KT P6SM SCT007 BKN100
TEMPO 2209/2219 6SM -SN BKN007 OVC100 RMK FCST BASED ON AUTO OBS. NXT FCST BY 221500Z
CZWG FIR / North America



MET'MAP, your aeronautical weather chart ! - Copyright ORBIFLY December 2007 - Disclaimer

ORBIFLY MET'MAP TEAM :

Programming & Development : Alexandra Zaïnal
Concept & original design : Baudouin d'Aumeries
Assistance for programming : Marc-Olivier Méhu
Technical & hardware support : Manuel Goepfert

Contact : metmap@orbifly.com




SOURCES & CREDITS :

   NOAA       Earth
Advisory